createdAt,value
2022-11-19T00:00:56.127Z,98579.59
2022-11-19T00:03:52.352Z,98583.75
2022-11-19T00:06:42.158Z,98578.78
2022-11-19T00:09:29.658Z,98573.06
2022-11-19T00:12:35.165Z,98568.88
2022-11-19T00:15:23.294Z,98568.63
2022-11-19T00:18:10.835Z,98565.25
2022-11-19T00:21:06.638Z,98566.28
2022-11-19T00:23:57.299Z,98551.94
2022-11-19T00:26:44.667Z,98561.06
2022-11-19T00:29:33.136Z,98563.16
2022-11-19T00:32:21.022Z,98568.56
2022-11-19T00:35:09.791Z,98555.81
2022-11-19T00:37:57.701Z,98563.63
2022-11-19T00:40:47.860Z,98561.00
2022-11-19T00:43:48.513Z,98562.56
2022-11-19T00:46:36.632Z,98565.72
2022-11-19T00:49:24.496Z,98559.97
2022-11-19T00:52:11.945Z,98564.41
2022-11-19T00:55:00.314Z,98568.81
2022-11-19T00:57:49.275Z,98568.81
2022-11-19T01:00:38.116Z,98567.25
2022-11-19T01:03:26.320Z,98568.28
2022-11-19T01:06:18.892Z,98564.91
2022-11-19T01:09:07.244Z,98579.22
2022-11-19T01:11:55.118Z,98569.88
2022-11-19T01:14:44.088Z,98573.03
2022-11-19T01:17:31.466Z,98581.34
2022-11-19T01:20:19.377Z,98578.22
2022-11-19T01:23:07.255Z,98575.63
2022-11-19T01:25:55.115Z,98570.13
2022-11-19T01:28:43.299Z,98570.66
2022-11-19T01:31:32.481Z,98564.66
2022-11-19T01:34:20.448Z,98569.13
2022-11-19T01:37:08.332Z,98571.16
2022-11-19T01:39:56.170Z,98574.59
2022-11-19T01:42:53.982Z,98569.38
2022-11-19T01:45:44.326Z,98557.91
2022-11-19T01:48:36.770Z,98574.34
2022-11-19T01:51:28.578Z,98576.38
2022-11-19T01:54:25.289Z,98571.72
2022-11-19T01:57:17.091Z,98573.03
2022-11-19T02:00:08.404Z,98578.78
2022-11-19T02:02:56.712Z,98578.78
2022-11-19T02:05:49.338Z,98570.19
2022-11-19T02:08:43.560Z,98574.09
2022-11-19T02:12:07.933Z,98574.09
2022-11-19T02:15:09.118Z,98576.69
2022-11-19T02:18:22.807Z,98580.34
2022-11-19T02:21:23.512Z,98581.63
2022-11-19T02:24:43.208Z,98580.59
2022-11-19T02:28:25.469Z,98576.88
2022-11-19T02:31:22.395Z,98584.94
2022-11-19T02:34:16.791Z,98595.09
2022-11-19T02:37:10.206Z,98584.38
2022-11-19T02:40:05.511Z,98577.13
2022-11-19T02:43:01.242Z,98578.69
2022-11-19T02:45:53.590Z,98574.78
2022-11-19T02:48:47.666Z,98577.69
2022-11-19T02:51:35.871Z,98571.97
2022-11-19T02:54:23.483Z,98570.91
2022-11-19T02:57:12.527Z,98577.19
2022-11-19T03:00:22.211Z,98596.91
2022-11-19T03:03:27.108Z,98585.69
2022-11-19T03:06:19.502Z,98592.72
2022-11-19T03:09:06.940Z,98593.25
2022-11-19T03:12:04.618Z,98584.16
2022-11-19T03:15:16.011Z,98594.31
2022-11-19T03:18:08.416Z,98596.91
2022-11-19T03:21:04.814Z,98594.06
2022-11-19T03:23:59.702Z,98600.34
2022-11-19T03:26:52.909Z,98587.06
2022-11-19T03:29:46.600Z,98603.75
2022-11-19T03:32:38.308Z,98588.16
2022-11-19T03:35:31.987Z,98596.97
2022-11-19T03:38:25.726Z,98597.22
2022-11-19T03:41:18.667Z,98607.56
2022-11-19T03:44:10.236Z,98605.94
2022-11-19T03:47:02.332Z,98601.50
2022-11-19T03:49:54.459Z,98603.06
2022-11-19T03:52:43.744Z,98599.94
2022-11-19T03:55:37.012Z,98599.41
2022-11-19T03:58:27.835Z,98605.88
2022-11-19T04:01:15.987Z,98605.63
2022-11-19T04:04:21.308Z,98609.53
2022-11-19T04:07:12.193Z,98609.28
2022-11-19T04:09:59.725Z,98602.53
2022-11-19T04:12:47.151Z,98614.50
2022-11-19T04:15:35.766Z,98604.63
2022-11-19T04:18:23.462Z,98611.91
2022-11-19T04:21:10.903Z,98613.69
2022-11-19T04:23:58.055Z,98619.13
2022-11-19T04:26:45.686Z,98614.38
2022-11-19T04:29:33.242Z,98613.81
2022-11-19T04:32:21.873Z,98616.91
2022-11-19T04:35:10.103Z,98619.03
2022-11-19T04:37:57.508Z,98617.56
2022-11-19T04:40:44.899Z,98622.75
2022-11-19T04:43:32.208Z,98622.50
2022-11-19T04:46:19.538Z,98624.31
2022-11-19T04:49:08.345Z,98625.13
2022-11-19T04:51:55.749Z,98628.47
2022-11-19T04:54:43.334Z,98629.78
2022-11-19T04:57:30.539Z,98628.44
2022-11-19T05:00:18.715Z,98628.97
2022-11-19T05:03:06.258Z,98633.44
2022-11-19T05:05:58.959Z,98630.59
2022-11-19T05:08:47.202Z,98628.00
2022-11-19T05:11:34.529Z,98625.69
2022-11-19T05:14:23.786Z,98628.03
2022-11-19T05:17:48.896Z,98629.03
2022-11-19T05:20:41.951Z,98615.38
2022-11-19T05:27:36.590Z,98624.41
2022-11-19T05:30:40.884Z,98628.34
2022-11-19T05:33:34.016Z,98635.09
2022-11-19T05:36:21.884Z,98635.66
2022-11-19T05:39:10.715Z,98637.47
2022-11-19T05:41:58.000Z,98642.41
2022-11-19T05:44:45.400Z,98643.97
2022-11-19T05:47:32.621Z,98637.13
2022-11-19T05:50:19.896Z,98653.22
2022-11-19T05:53:11.000Z,98649.56
2022-11-19T05:56:20.352Z,98646.91
2022-11-19T05:59:07.728Z,98649.69
2022-11-19T06:01:55.397Z,98654.09
2022-11-19T06:04:42.578Z,98658.81
2022-11-19T06:07:30.004Z,98657.50
2022-11-19T06:10:17.779Z,98663.78
2022-11-19T06:13:06.556Z,98666.44
2022-11-19T06:15:54.474Z,98671.41
2022-11-19T06:18:41.827Z,98673.72
2022-11-19T06:21:29.508Z,98674.69
2022-11-19T06:24:17.168Z,98678.81
2022-11-19T06:27:04.598Z,98675.88
2022-11-19T06:29:56.202Z,98683.91
2022-11-19T06:32:49.653Z,98682.34
2022-11-19T06:35:41.102Z,98686.75
2022-11-19T06:38:28.495Z,98692.44
2022-11-19T06:41:16.526Z,98689.78
2022-11-19T06:44:04.251Z,98687.13
2022-11-19T06:46:53.016Z,98689.69
2022-11-19T06:49:40.619Z,98688.06
2022-11-19T06:52:28.398Z,98693.22
2022-11-19T06:55:16.175Z,98703.84
2022-11-19T06:58:04.562Z,98707.69
2022-11-19T07:00:51.899Z,98699.38
2022-11-19T07:03:41.241Z,98708.19
2022-11-19T07:06:10.664Z,98700.94
2022-11-19T07:08:39.721Z,98702.75
2022-11-19T07:11:22.693Z,98708.19
2022-11-19T07:14:01.223Z,98699.06
2022-11-19T07:16:33.296Z,98702.69
2022-11-19T07:19:06.091Z,98711.03
2022-11-19T07:21:35.483Z,98706.59
2022-11-19T07:24:07.662Z,98706.31
2022-11-19T07:26:38.176Z,98711.75
2022-11-19T07:29:35.390Z,98712.78
2022-11-19T07:32:20.081Z,98710.91
2022-11-19T07:34:56.455Z,98726.19
2022-11-19T07:37:27.499Z,98721.78
2022-11-19T07:40:07.505Z,98717.06
2022-11-19T07:45:43.416Z,98734.69
2022-11-19T07:51:16.700Z,98737.38
2022-11-19T07:53:45.736Z,98732.94
2022-11-19T07:56:14.726Z,98739.72
2022-11-19T07:58:44.132Z,98735.81
2022-11-19T08:01:17.878Z,98742.47
2022-11-19T08:03:51.848Z,98732.84
2022-11-19T08:06:28.123Z,98733.75
2022-11-19T08:08:57.878Z,98743.28
2022-11-19T08:11:27.183Z,98742.25
2022-11-19T08:13:56.231Z,98737.06
2022-11-19T08:16:42.632Z,98743.53
2022-11-19T08:19:40.314Z,98742.13
2022-11-19T08:22:13.882Z,98746.84
2022-11-19T08:24:48.657Z,98756.50
2022-11-19T08:27:18.633Z,98746.13
2022-11-19T08:29:48.112Z,98757.03
2022-11-19T08:32:17.690Z,98750.75
2022-11-19T08:34:47.181Z,98753.84
2022-11-19T08:37:18.125Z,98755.91
2022-11-19T08:39:47.524Z,98757.47
2022-11-19T08:42:34.256Z,98754.41
2022-11-19T08:45:03.671Z,98754.06
2022-11-19T08:47:33.140Z,98765.25
2022-11-19T08:50:02.546Z,98763.69
2022-11-19T08:52:33.339Z,98768.56
2022-11-19T08:55:02.707Z,98766.19
2022-11-19T08:57:32.222Z,98766.66
2022-11-19T09:00:06.235Z,98770.75
2022-11-19T09:02:36.345Z,98768.88
2022-11-19T09:05:07.874Z,98767.78
2022-11-19T09:07:41.552Z,98777.88
2022-11-19T09:10:11.566Z,98784.53
2022-11-19T09:12:41.097Z,98781.16
2022-11-19T09:15:12.049Z,98779.56
2022-11-19T09:17:46.596Z,98780.38
2022-11-19T09:20:16.875Z,98788.16
2022-11-19T09:22:47.770Z,98788.16
2022-11-19T09:25:17.373Z,98799.34
2022-11-19T09:27:46.849Z,98797.75
2022-11-19T09:30:16.801Z,98793.13
2022-11-19T09:32:46.230Z,98801.94
2022-11-19T09:35:15.855Z,98802.22
2022-11-19T09:37:46.704Z,98811.63
2022-11-19T09:40:20.541Z,98818.44
2022-11-19T09:43:03.842Z,98814.34
2022-11-19T09:45:49.270Z,98819.00
2022-11-19T09:48:29.341Z,98819.78
2022-11-19T09:51:04.297Z,98822.69
2022-11-19T09:53:43.120Z,98832.59
2022-11-19T09:56:18.699Z,98831.56
2022-11-19T09:58:50.937Z,98839.13
2022-11-19T10:01:21.023Z,98837.34
2022-11-19T10:03:53.416Z,98843.00
2022-11-19T10:06:30.678Z,98847.09
2022-11-19T10:09:26.247Z,98855.25
2022-11-19T10:12:08.256Z,98853.59
2022-11-19T10:15:03.222Z,98853.44
2022-11-19T10:17:49.016Z,98856.16
2022-11-19T10:20:34.330Z,98861.59
2022-11-19T10:23:12.042Z,98857.56
2022-11-19T10:25:46.460Z,98860.06
2022-11-19T10:28:18.928Z,98851.41
2022-11-19T10:30:54.564Z,98847.84
2022-11-19T10:33:29.393Z,98845.72
2022-11-19T10:36:04.932Z,98853.16
2022-11-19T10:38:39.557Z,98851.25
2022-11-19T10:41:16.949Z,98856.44
2022-11-19T10:43:52.978Z,98856.22
2022-11-19T10:46:26.235Z,98850.56
2022-11-19T10:48:59.559Z,98854.38
2022-11-19T10:51:32.340Z,98859.13
2022-11-19T10:54:06.685Z,98854.22
2022-11-19T10:56:40.939Z,98856.38
2022-11-19T10:59:16.572Z,98845.75
2022-11-19T11:01:50.424Z,98851.97
2022-11-19T11:04:22.917Z,98852.97
2022-11-19T11:06:55.174Z,98855.03
2022-11-19T11:09:36.086Z,98846.22
2022-11-19T11:12:35.343Z,98848.00
2022-11-19T11:15:17.020Z,98853.19
2022-11-19T11:17:48.460Z,98854.00
2022-11-19T11:20:28.487Z,98852.97
2022-11-19T11:23:08.091Z,98839.69
2022-11-19T11:25:40.304Z,98844.78
2022-11-19T11:28:19.818Z,98849.72
2022-11-19T11:30:56.790Z,98849.50
2022-11-19T11:33:35.837Z,98849.28
2022-11-19T11:36:09.195Z,98848.00
2022-11-19T11:38:44.342Z,98846.56
2022-11-19T11:44:17.587Z,98842.94
2022-11-19T11:46:49.929Z,98839.06
2022-11-19T11:49:40.581Z,98845.28
2022-11-19T11:52:20.995Z,98847.31
2022-11-19T11:55:02.428Z,98845.75
2022-11-19T11:57:36.292Z,98847.88
2022-11-19T12:00:34.282Z,98836.94
2022-11-19T12:03:06.238Z,98837.97
2022-11-19T12:05:46.766Z,98843.16
2022-11-19T12:08:40.199Z,98837.63
2022-11-19T12:11:18.780Z,98834.72
2022-11-19T12:14:00.559Z,98838.03
2022-11-19T12:16:47.746Z,98848.53
2022-11-19T12:19:44.648Z,98855.75
2022-11-19T12:22:24.273Z,98859.38
2022-11-19T12:25:28.355Z,98864.34
2022-11-19T12:28:28.886Z,98864.56
2022-11-19T12:31:12.994Z,98863.53
2022-11-19T12:34:25.158Z,98867.63
2022-11-19T12:37:06.049Z,98873.03
2022-11-19T12:39:47.524Z,98869.09
2022-11-19T12:42:42.276Z,98875.50
2022-11-19T12:45:22.955Z,98869.56
2022-11-19T12:48:18.816Z,98877.88
2022-11-19T12:50:56.988Z,98867.50
2022-11-19T12:53:43.972Z,98872.69
2022-11-19T12:56:30.507Z,98880.25
2022-11-19T12:59:12.222Z,98878.44
2022-11-19T13:01:49.414Z,98879.47
2022-11-19T13:04:26.383Z,98881.03
2022-11-19T13:07:04.350Z,98877.75
2022-11-19T13:09:43.853Z,98887.69
2022-11-19T13:12:16.938Z,98882.81
2022-11-19T13:14:54.821Z,98875.38
2022-11-19T13:17:30.823Z,98866.31
2022-11-19T13:20:05.680Z,98871.28
2022-11-19T13:22:39.378Z,98866.31
2022-11-19T13:25:20.026Z,98868.34
2022-11-19T13:27:51.910Z,98872.19
2022-11-19T13:30:23.736Z,98865.34
2022-11-19T13:33:03.672Z,98867.38
2022-11-19T13:35:39.712Z,98864.22
2022-11-19T13:42:12.017Z,98873.16
2022-11-19T13:44:42.240Z,98878.81
2022-11-19T13:47:19.046Z,98883.06
2022-11-19T13:49:58.058Z,98881.03
2022-11-19T13:52:32.150Z,98884.66
2022-11-19T13:55:03.170Z,98883.88
2022-11-19T13:57:36.254Z,98878.00
2022-11-19T14:00:08.970Z,98882.72
2022-11-19T14:03:23.503Z,98875.41
2022-11-19T14:06:36.544Z,98884.28
2022-11-19T14:09:23.954Z,98883.84
2022-11-19T14:12:41.612Z,98888.00
2022-11-19T14:16:09.301Z,98887.22
2022-11-19T14:18:59.722Z,98894.53
2022-11-19T14:22:08.244Z,98899.47
2022-11-19T14:29:25.877Z,98896.34
2022-11-19T14:32:33.772Z,98899.41
2022-11-19T14:35:49.544Z,98897.81
2022-11-19T14:38:44.012Z,98898.81
2022-11-19T14:41:30.643Z,98894.88
2022-11-19T14:44:33.086Z,98898.41
2022-11-19T14:48:12.208Z,98899.56
2022-11-19T14:51:26.573Z,98907.69
2022-11-19T14:54:04.875Z,98903.38
2022-11-19T14:56:37.700Z,98909.81
2022-11-19T14:59:23.312Z,98913.06
2022-11-19T15:01:58.794Z,98914.66
2022-11-19T15:04:36.147Z,98923.44
2022-11-19T15:07:12.874Z,98930.91
2022-11-19T15:10:31.431Z,98935.19
2022-11-19T15:13:26.419Z,98925.59
2022-11-19T15:16:14.823Z,98920.75
2022-11-19T15:19:23.412Z,98926.38
2022-11-19T15:22:38.583Z,98921.00
2022-11-19T15:25:23.238Z,98917.06
2022-11-19T15:28:04.964Z,98924.59
2022-11-19T15:30:51.708Z,98921.78
2022-11-19T15:33:58.077Z,98929.78
2022-11-19T15:36:35.055Z,98921.00
2022-11-19T15:39:17.031Z,98926.53
2022-11-19T15:42:01.447Z,98925.28
2022-11-19T15:44:39.860Z,98919.06
2022-11-19T15:47:19.163Z,98931.25
2022-11-19T15:49:50.134Z,98929.66
2022-11-19T15:52:28.151Z,98925.72
2022-11-19T15:55:20.241Z,98924.81
2022-11-19T15:57:55.007Z,98921.88
2022-11-19T16:00:26.144Z,98928.31
2022-11-19T16:02:55.952Z,98931.94
2022-11-19T16:05:28.757Z,98932.94
2022-11-19T16:07:59.977Z,98932.16
2022-11-19T16:10:34.951Z,98928.75
2022-11-19T16:13:39.144Z,98929.56
2022-11-19T16:16:34.255Z,98929.56
2022-11-19T16:19:07.080Z,98928.00
2022-11-19T16:21:41.437Z,98922.81
2022-11-19T16:24:32.295Z,98923.56
2022-11-19T16:27:04.813Z,98933.84
2022-11-19T16:29:41.461Z,98930.69
2022-11-19T16:32:16.917Z,98931.69
2022-11-19T16:34:46.736Z,98933.72
2022-11-19T16:37:18.120Z,98933.94
2022-11-19T16:39:53.669Z,98943.31
2022-11-19T16:42:27.398Z,98939.69
2022-11-19T16:45:07.348Z,98947.25
2022-11-19T16:47:40.610Z,98950.06
2022-11-19T16:50:31.796Z,98950.16
2022-11-19T16:53:03.033Z,98950.72
2022-11-19T16:55:53.118Z,98953.91
2022-11-19T16:58:27.674Z,98960.66
2022-11-19T17:00:59.780Z,98955.47
2022-11-19T17:03:39.660Z,98954.66
2022-11-19T17:06:21.325Z,98959.09
2022-11-19T17:08:58.047Z,98961.09
2022-11-19T17:12:06.559Z,98962.13
2022-11-19T17:15:01.201Z,98967.31
2022-11-19T17:17:42.082Z,98961.75
2022-11-19T17:20:52.962Z,98973.25
2022-11-19T17:23:24.247Z,98973.13
2022-11-19T17:25:57.434Z,98970.66
2022-11-19T17:28:36.587Z,98973.47
2022-11-19T17:31:17.319Z,98975.47
2022-11-19T17:33:53.691Z,98978.94
2022-11-19T17:36:25.763Z,98971.63
2022-11-19T17:38:55.739Z,98987.16
2022-11-19T17:41:47.410Z,98986.41
2022-11-19T17:44:39.417Z,98981.97
2022-11-19T17:47:24.373Z,98992.56
2022-11-19T17:49:54.566Z,98987.59
2022-11-19T17:52:27.515Z,98992.34
2022-11-19T17:55:02.896Z,98997.50
2022-11-19T17:57:32.553Z,99008.22
2022-11-19T18:00:02.164Z,99001.50
2022-11-19T18:02:35.476Z,98999.88
2022-11-19T18:05:14.871Z,99005.88
2022-11-19T18:07:44.327Z,99011.63
2022-11-19T18:10:14.165Z,99013.75
2022-11-19T18:12:43.738Z,99013.75
2022-11-19T18:15:18.526Z,99005.44
2022-11-19T18:17:49.543Z,99004.41
2022-11-19T18:20:19.328Z,99001.03
2022-11-19T18:22:51.392Z,99003.84
2022-11-19T18:25:23.272Z,99006.88
2022-11-19T18:27:52.833Z,98996.97
2022-11-19T18:30:22.628Z,99010.69
2022-11-19T18:32:53.640Z,99015.88
2022-11-19T18:35:25.749Z,99014.28
2022-11-19T18:37:55.840Z,99016.66
2022-11-19T18:40:25.517Z,99012.50
2022-11-19T18:43:12.687Z,99019.47
2022-11-19T18:45:42.325Z,99014.50
2022-11-19T18:48:13.397Z,99019.13
2022-11-19T18:50:42.945Z,99021.72
2022-11-19T18:53:15.291Z,99024.09
2022-11-19T18:55:44.972Z,99024.31
2022-11-19T18:58:14.908Z,99015.97
2022-11-19T19:00:47.592Z,99026.31
2022-11-19T19:03:18.454Z,99025.75
2022-11-19T19:05:48.111Z,99022.38
2022-11-19T19:08:17.561Z,99025.75
2022-11-19T19:10:47.049Z,99033.06
2022-11-19T19:13:15.481Z,99029.50
2022-11-19T19:15:45.030Z,99041.66
2022-11-19T19:18:14.493Z,99043.44
2022-11-19T19:20:45.799Z,99037.47
2022-11-19T19:23:15.352Z,99047.63
2022-11-19T19:25:44.813Z,99048.19
2022-11-19T19:28:14.398Z,99045.16
2022-11-19T19:30:43.903Z,99046.72
2022-11-19T19:33:13.475Z,99054.47
2022-11-19T19:35:44.529Z,99046.38
2022-11-19T19:38:14.004Z,99041.84
2022-11-19T19:40:43.731Z,99048.06
2022-11-19T19:43:13.314Z,99046.25
2022-11-19T19:45:43.653Z,99039.28
2022-11-19T19:48:13.495Z,99039.28
2022-11-19T19:50:51.074Z,99054.22
2022-11-19T19:53:20.581Z,99055.47
2022-11-19T19:55:50.103Z,99056.81
2022-11-19T19:58:19.701Z,99052.66
2022-11-19T20:00:51.387Z,99056.59
2022-11-19T20:03:20.884Z,99057.41
2022-11-19T20:05:52.121Z,99057.75
2022-11-19T20:08:22.289Z,99063.28
2022-11-19T20:10:51.744Z,99060.03
2022-11-19T20:13:32.187Z,99065.00
2022-11-19T20:16:09.946Z,99063.41
2022-11-19T20:18:43.526Z,99058.47
2022-11-19T20:21:17.136Z,99065.63
2022-11-19T20:23:46.869Z,99060.47
2022-11-19T20:26:18.781Z,99059.66
2022-11-19T20:28:49.321Z,99064.84
2022-11-19T20:31:20.597Z,99068.44
2022-11-19T20:33:55.094Z,99057.50
2022-11-19T20:36:27.313Z,99068.34
2022-11-19T20:38:58.076Z,99069.31
2022-11-19T20:41:46.141Z,99069.31
2022-11-19T20:44:23.514Z,99073.94
2022-11-19T20:46:55.793Z,99066.94
2022-11-19T20:49:27.294Z,99070.91
2022-11-19T20:51:58.853Z,99075.63
2022-11-19T20:54:28.873Z,99072.81
2022-11-19T20:56:59.055Z,99064.84
2022-11-19T20:59:29.039Z,99075.78
2022-11-19T21:01:58.798Z,99071.63
2022-11-19T21:04:46.918Z,99072.06
2022-11-19T21:07:36.242Z,99081.06
2022-11-19T21:10:24.315Z,99082.25
2022-11-19T21:13:12.379Z,99079.34
2022-11-19T21:16:00.784Z,99071.78
2022-11-19T21:18:48.988Z,99064.25
2022-11-19T21:21:36.589Z,99069.63
2022-11-19T21:24:25.868Z,99068.63
2022-11-19T21:27:13.653Z,99071.78
2022-11-19T21:30:01.458Z,99066.19
2022-11-19T21:32:49.119Z,99066.19
2022-11-19T21:35:41.987Z,99069.31
2022-11-19T21:38:30.264Z,99065.75
2022-11-19T21:41:19.744Z,99067.88
2022-11-19T21:44:08.117Z,99069.69
2022-11-19T21:46:56.009Z,99071.47
2022-11-19T21:49:43.639Z,99072.28
2022-11-19T21:52:31.632Z,99073.03
2022-11-19T21:55:19.655Z,99073.84
2022-11-19T21:58:09.137Z,99080.13
2022-11-19T22:00:59.511Z,99067.47
2022-11-19T22:03:47.161Z,99075.56
2022-11-19T22:06:35.342Z,99076.66
2022-11-19T22:09:23.132Z,99072.53
2022-11-19T22:12:10.819Z,99066.09
2022-11-19T22:14:59.831Z,99066.16
2022-11-19T22:17:47.477Z,99065.59
2022-11-19T22:20:35.178Z,99068.53
2022-11-19T22:23:24.449Z,99065.50
2022-11-19T22:26:14.132Z,99061.56
2022-11-19T22:29:01.763Z,99064.38
2022-11-19T22:31:51.374Z,99062.00
2022-11-19T22:34:38.998Z,99068.53
2022-11-19T22:37:26.903Z,99065.50
2022-11-19T22:40:15.636Z,99062.50
2022-11-19T22:43:03.557Z,99059.47
2022-11-19T22:45:51.527Z,99057.03
2022-11-19T22:48:41.269Z,99061.44
2022-11-19T22:51:29.052Z,99061.44
2022-11-19T22:54:16.932Z,99068.50
2022-11-19T22:57:04.916Z,99059.75
2022-11-19T22:59:52.835Z,99057.38
2022-11-19T23:02:40.641Z,99060.31
2022-11-19T23:05:33.141Z,99056.38
2022-11-19T23:08:24.777Z,99063.34
2022-11-19T23:11:14.610Z,99058.16
2022-11-19T23:14:01.237Z,99058.16
2022-11-19T23:16:49.284Z,99057.94
2022-11-19T23:19:38.725Z,99054.16
2022-11-19T23:22:27.863Z,99055.06
2022-11-19T23:25:15.734Z,99059.59
2022-11-19T23:28:03.586Z,99050.59
2022-11-19T23:30:51.358Z,99044.06
2022-11-19T23:33:39.258Z,99049.78
2022-11-19T23:36:30.063Z,99049.78
2022-11-19T23:39:20.118Z,99046.66
2022-11-19T23:42:08.236Z,99043.28
2022-11-19T23:44:56.148Z,99043.59
2022-11-19T23:47:43.930Z,99046.34
2022-11-19T23:50:31.849Z,99045.91
2022-11-19T23:53:19.500Z,99041.84
2022-11-19T23:56:09.554Z,99042.66
2022-11-19T23:58:57.536Z,99033.66
